createdAt,value
2018-10-11T09:28:13.945Z,20.67
2018-10-11T09:30:43.183Z,20.73
2018-10-11T09:33:12.788Z,19.77
2018-10-11T09:35:41.243Z,22.20
2018-10-11T09:38:09.737Z,18.70
2018-10-11T09:40:38.445Z,18.50
2018-10-11T09:43:07.416Z,19.40
2018-10-11T09:45:36.736Z,17.77
2018-10-11T09:48:06.649Z,21.13
2018-10-11T09:50:36.390Z,19.10
2018-10-11T09:53:05.422Z,27.60
2018-10-11T09:55:34.543Z,16.73
2018-10-11T09:58:03.537Z,16.90
2018-10-11T10:00:33.330Z,16.80
2018-10-11T10:03:01.817Z,16.93
2018-10-11T10:05:30.393Z,16.73
2018-10-11T10:07:59.727Z,18.20
2018-10-11T10:10:28.904Z,22.67
2018-10-11T10:12:58.437Z,18.10
2018-10-11T10:15:27.006Z,17.47
2018-10-11T10:17:55.874Z,18.73
2018-10-11T10:20:24.489Z,14.93
2018-10-11T10:22:52.970Z,15.50
2018-10-11T10:25:21.611Z,17.80
2018-10-11T10:27:50.141Z,15.17
2018-10-11T10:30:23.914Z,15.80
2018-10-11T10:32:52.439Z,14.80
2018-10-11T10:35:21.107Z,14.47
2018-10-11T10:37:50.534Z,14.87
2018-10-11T10:40:18.980Z,17.53
2018-10-11T10:42:47.762Z,15.63
2018-10-11T10:45:16.428Z,15.13
2018-10-11T10:47:44.997Z,14.90
2018-10-11T10:50:13.608Z,15.33
2018-10-11T10:52:42.794Z,13.33
2018-10-11T10:55:11.376Z,13.83
2018-10-11T10:57:39.874Z,13.20
2018-10-11T11:00:09.038Z,13.27
2018-10-11T11:02:38.212Z,13.43
2018-10-11T11:05:06.979Z,19.60
2018-10-11T11:07:35.747Z,13.53
2018-10-11T11:10:05.497Z,14.00
2018-10-11T11:12:35.337Z,12.27
2018-10-11T11:15:04.146Z,12.90
2018-10-11T11:17:33.177Z,13.10
2018-10-11T11:20:02.313Z,13.87
2018-10-11T11:22:30.946Z,12.60
2018-10-11T11:24:59.528Z,15.33
2018-10-11T11:27:28.830Z,13.13
2018-10-11T11:29:57.446Z,13.83
2018-10-11T11:32:26.027Z,13.13
2018-10-11T11:34:54.486Z,12.73
2018-10-11T11:37:23.620Z,14.27
2018-10-11T11:39:52.205Z,13.00
2018-10-11T11:42:21.207Z,15.47
2018-10-11T11:44:49.644Z,13.87
2018-10-11T11:47:18.084Z,11.23
2018-10-11T11:49:47.195Z,11.90
2018-10-11T11:52:28.720Z,10.87
2018-10-11T11:54:57.660Z,12.47
2018-10-11T11:57:38.793Z,12.07
2018-10-11T12:00:08.808Z,11.30
2018-10-11T12:02:38.039Z,12.60
2018-10-11T12:05:07.698Z,11.77
2018-10-11T12:07:36.321Z,9.73
2018-10-11T12:10:05.223Z,11.23
2018-10-11T12:13:13.161Z,9.90
2018-10-11T12:15:43.603Z,10.93
2018-10-11T12:18:14.096Z,12.40
2018-10-11T12:20:43.802Z,10.00
2018-10-11T12:23:13.825Z,10.67
2018-10-11T12:25:43.049Z,11.80
2018-10-11T12:28:12.473Z,11.10
2018-10-11T12:30:43.586Z,9.17
2018-10-11T12:33:14.679Z,9.83
2018-10-11T12:35:44.241Z,9.03
2018-10-11T12:38:12.759Z,9.40
2018-10-11T12:40:44.583Z,10.33
2018-10-11T12:43:13.862Z,9.17
2018-10-11T12:45:42.562Z,8.73
2018-10-11T12:48:11.180Z,9.00
2018-10-11T12:50:40.081Z,8.30
2018-10-11T12:53:09.819Z,10.53
2018-10-11T12:55:38.481Z,8.40
2018-10-11T12:58:07.666Z,10.83
2018-10-11T13:00:36.443Z,8.80
2018-10-11T13:03:05.199Z,12.93
2018-10-11T13:05:33.711Z,8.57
2018-10-11T13:08:05.627Z,8.90
2018-10-11T13:10:34.114Z,9.00
2018-10-11T13:13:02.999Z,7.50
2018-10-11T13:15:31.579Z,9.10
2018-10-11T13:18:00.125Z,12.67
2018-10-11T13:20:28.695Z,8.63
2018-10-11T13:22:57.453Z,10.60
2018-10-11T13:25:26.057Z,9.20
2018-10-11T13:27:54.508Z,11.70
2018-10-11T13:30:24.428Z,9.93
2018-10-11T13:32:53.348Z,9.67
2018-10-11T13:35:22.437Z,10.37
2018-10-11T13:37:51.422Z,10.33
2018-10-11T13:40:20.176Z,13.80
2018-10-11T13:42:49.373Z,11.20
2018-10-11T13:45:17.928Z,9.23
2018-10-11T13:47:46.364Z,9.83
2018-10-11T13:50:14.862Z,12.87
2018-10-11T13:52:43.313Z,10.80
2018-10-11T13:55:15.049Z,10.40
2018-10-11T13:57:42.468Z,11.83
2018-10-11T14:00:11.945Z,9.30
2018-10-11T14:02:41.105Z,13.83
2018-10-11T14:05:09.680Z,9.73
2018-10-11T14:07:38.493Z,10.40
2018-10-11T14:10:07.334Z,8.80
2018-10-11T14:12:36.804Z,9.60
2018-10-11T14:15:05.925Z,10.03
2018-10-11T14:17:35.194Z,8.97
2018-10-11T14:20:03.864Z,9.83
2018-10-11T14:22:32.345Z,9.53
2018-10-11T14:25:00.919Z,9.97
2018-10-11T14:27:29.521Z,9.60
2018-10-11T14:29:57.996Z,8.60
2018-10-11T14:32:26.580Z,15.90
2018-10-11T14:34:55.166Z,11.80
2018-10-11T14:37:24.759Z,12.20
2018-10-11T14:39:53.649Z,9.40
2018-10-11T14:42:23.325Z,13.90
2018-10-11T14:44:51.935Z,15.50
2018-10-11T14:47:21.006Z,14.93
2018-10-11T14:49:49.712Z,11.33
2018-10-11T14:52:18.565Z,15.07
2018-10-11T14:54:47.150Z,11.13
2018-10-11T14:57:15.915Z,12.90
2018-10-11T14:59:44.706Z,15.13
2018-10-11T15:02:13.231Z,22.90
2018-10-11T15:04:41.850Z,11.90
2018-10-11T15:07:10.463Z,13.60
2018-10-11T15:09:39.092Z,11.47
2018-10-11T15:12:07.643Z,11.13
2018-10-11T15:14:36.361Z,15.63
2018-10-11T15:17:04.955Z,14.00
2018-10-11T15:19:34.579Z,13.63
2018-10-11T15:22:03.934Z,11.60
2018-10-11T15:24:33.373Z,20.20
2018-10-11T15:27:02.008Z,18.07
2018-10-11T15:29:31.076Z,13.93
2018-10-11T15:31:59.612Z,15.40
2018-10-11T15:34:28.997Z,14.17
2018-10-11T15:36:57.442Z,14.90
2018-10-11T15:39:26.240Z,18.73
2018-10-11T15:41:54.878Z,14.50
2018-10-11T15:44:24.031Z,13.00
2018-10-11T15:46:53.737Z,16.07
2018-10-11T15:49:22.434Z,12.80
2018-10-11T15:51:51.420Z,13.10
2018-10-11T15:54:19.902Z,15.47
2018-10-11T15:56:48.461Z,21.90
2018-10-11T15:59:17.125Z,13.40
2018-10-11T16:01:45.705Z,16.97
2018-10-11T16:04:14.347Z,20.93
2018-10-11T16:06:42.888Z,14.73
2018-10-11T16:09:11.742Z,15.33
2018-10-11T16:11:41.051Z,15.97
2018-10-11T16:14:09.518Z,24.80
2018-10-11T16:16:38.287Z,26.23
2018-10-11T16:19:06.844Z,32.33
2018-10-11T16:21:35.328Z,26.70
2018-10-11T16:24:04.387Z,17.77
2018-10-11T16:26:33.245Z,21.87
2018-10-11T16:29:01.769Z,18.30
2018-10-11T16:31:30.441Z,19.97
2018-10-11T16:33:59.614Z,39.47
2018-10-11T16:36:28.681Z,20.67
2018-10-11T16:38:57.302Z,15.77
2018-10-11T16:41:25.748Z,22.97
2018-10-11T16:43:56.350Z,18.50
2018-10-11T16:46:25.223Z,19.37
2018-10-11T16:48:54.727Z,25.43
2018-10-11T16:51:23.843Z,18.77
2018-10-11T16:53:52.439Z,19.60
2018-10-11T16:56:21.540Z,17.97
2018-10-11T16:58:50.216Z,15.73
2018-10-11T17:01:18.756Z,17.93
2018-10-11T17:03:47.289Z,15.37
2018-10-11T17:06:15.791Z,19.67
2018-10-11T17:08:44.907Z,28.80
2018-10-11T17:11:13.488Z,19.40
2018-10-11T17:13:42.162Z,19.70
2018-10-11T17:16:11.613Z,24.37
2018-10-11T17:18:40.857Z,27.13
2018-10-11T17:21:10.246Z,23.17
2018-10-11T17:23:38.926Z,27.00
2018-10-11T17:26:07.908Z,24.97
2018-10-11T17:28:36.531Z,25.83
2018-10-11T17:31:06.834Z,28.00
2018-10-11T17:33:38.136Z,35.37
2018-10-11T17:36:09.168Z,29.80
2018-10-11T17:38:40.053Z,21.80
2018-10-11T17:41:11.561Z,30.40
2018-10-11T17:43:42.118Z,25.50
2018-10-11T17:46:13.172Z,41.23
2018-10-11T17:48:43.677Z,38.83
2018-10-11T17:51:14.543Z,30.50
2018-10-11T17:53:45.237Z,29.40
2018-10-11T17:56:15.601Z,28.27
2018-10-11T17:58:46.297Z,24.00
2018-10-11T18:01:17.166Z,26.27
2018-10-11T18:03:48.363Z,27.07
2018-10-11T18:06:21.002Z,27.40
2018-10-11T18:08:52.755Z,21.50
2018-10-11T18:11:23.270Z,23.80
2018-10-11T18:13:54.633Z,27.00
2018-10-11T18:16:25.155Z,36.60
2018-10-11T18:18:56.365Z,31.03
2018-10-11T18:21:28.164Z,32.10
2018-10-11T18:24:00.302Z,26.23
2018-10-11T18:26:31.891Z,26.23
2018-10-11T18:29:04.683Z,26.53
2018-10-11T18:31:35.571Z,22.43
2018-10-11T18:34:06.694Z,22.67
2018-10-11T18:36:46.665Z,23.50
2018-10-11T18:39:21.264Z,21.97
2018-10-11T18:41:54.720Z,29.67
2018-10-11T18:44:31.559Z,23.90
2018-10-11T18:47:06.568Z,23.80
2018-10-11T18:49:40.054Z,23.20
2018-10-11T18:52:13.391Z,27.10
2018-10-11T18:54:48.238Z,31.13
2018-10-11T18:57:24.156Z,24.90
2018-10-11T19:00:00.387Z,23.27
2018-10-11T19:02:36.100Z,21.93
2018-10-11T19:05:11.619Z,26.00
2018-10-11T19:07:51.103Z,20.10
2018-10-11T19:10:25.378Z,20.80
2018-10-11T19:13:05.572Z,24.83
2018-10-11T19:15:44.834Z,26.07
2018-10-11T19:18:18.869Z,24.10
2018-10-11T19:20:50.729Z,23.23
2018-10-11T19:23:23.694Z,24.67
2018-10-11T19:25:56.754Z,25.33
2018-10-11T19:28:34.005Z,29.13
2018-10-11T19:31:09.520Z,25.77
2018-10-11T19:33:41.229Z,27.70
2018-10-11T19:36:12.131Z,22.33
2018-10-11T19:38:55.534Z,28.20
2018-10-11T19:41:35.941Z,23.20
2018-10-11T19:44:08.046Z,26.27
2018-10-11T19:46:39.101Z,22.97
2018-10-11T19:49:10.689Z,24.47
2018-10-11T19:51:41.888Z,26.40
2018-10-11T19:54:13.165Z,22.57
2018-10-11T19:56:44.193Z,28.83
2018-10-11T19:59:16.647Z,24.23
2018-10-11T20:01:47.452Z,23.53
2018-10-11T20:04:18.478Z,25.20
2018-10-11T20:06:49.873Z,26.03
2018-10-11T20:09:22.816Z,22.73
2018-10-11T20:11:53.736Z,25.43
2018-10-11T20:14:25.246Z,24.37
2018-10-11T20:16:56.009Z,24.47
2018-10-11T20:19:24.637Z,24.00
2018-10-11T20:21:53.510Z,22.10
2018-10-11T20:24:23.272Z,18.90
2018-10-11T20:26:52.044Z,21.70
2018-10-11T20:29:21.510Z,26.03
2018-10-11T20:31:50.830Z,20.93
2018-10-11T20:34:19.622Z,21.57
2018-10-11T20:36:48.235Z,21.77
2018-10-11T20:39:18.195Z,20.13
2018-10-11T20:41:51.367Z,22.20
2018-10-11T20:44:21.355Z,17.10
2018-10-11T20:46:50.320Z,23.07
2018-10-11T20:49:20.381Z,21.00
2018-10-11T20:51:49.034Z,20.43
2018-10-11T20:54:17.648Z,19.50
2018-10-11T20:56:46.371Z,21.70
2018-10-11T20:59:15.169Z,20.80
2018-10-11T21:01:43.825Z,20.83
2018-10-11T21:04:12.442Z,19.83
2018-10-11T21:06:41.900Z,25.37
2018-10-11T21:09:11.502Z,21.30
2018-10-11T21:11:40.470Z,20.33
2018-10-11T21:14:09.456Z,23.47
2018-10-11T21:16:38.133Z,19.63
2018-10-11T21:19:08.053Z,21.40
2018-10-11T21:21:36.970Z,22.70
2018-10-11T21:24:06.212Z,20.03
2018-10-11T21:26:34.701Z,19.53
2018-10-11T21:29:03.649Z,19.30
2018-10-11T21:31:32.707Z,20.13
2018-10-11T21:34:01.879Z,19.20
2018-10-11T21:36:30.315Z,19.70
2018-10-11T21:38:58.827Z,18.77
2018-10-11T21:41:27.215Z,17.73
2018-10-11T21:43:55.953Z,21.73
2018-10-11T21:46:24.541Z,17.90
2018-10-11T21:48:52.943Z,16.77
2018-10-11T21:51:21.442Z,19.40
2018-10-11T21:53:50.410Z,18.37
2018-10-11T21:56:18.931Z,17.30
2018-10-11T21:58:47.757Z,15.40
2018-10-11T22:01:21.486Z,22.83
2018-10-11T22:03:50.112Z,19.07
2018-10-11T22:06:19.137Z,21.70
2018-10-11T22:08:47.603Z,15.97
2018-10-11T22:11:17.706Z,20.00
2018-10-11T22:13:46.253Z,20.10
2018-10-11T22:16:14.755Z,19.10
2018-10-11T22:18:43.228Z,18.40
2018-10-11T22:21:13.514Z,17.70
2018-10-11T22:23:43.092Z,19.40
2018-10-11T22:26:13.085Z,19.10
2018-10-11T22:28:42.435Z,18.00
2018-10-11T22:31:12.821Z,23.03
2018-10-11T22:33:42.812Z,16.07
2018-10-11T22:36:12.510Z,13.23
2018-10-11T22:38:41.658Z,20.13
2018-10-11T22:41:11.452Z,15.40
2018-10-11T22:43:40.850Z,19.53
2018-10-11T22:46:09.457Z,17.30
2018-10-11T22:48:37.889Z,22.30
2018-10-11T22:51:06.446Z,15.33
2018-10-11T22:53:34.992Z,18.70
2018-10-11T22:56:03.457Z,15.00
2018-10-11T22:58:32.319Z,15.87
2018-10-11T23:01:00.831Z,16.50
2018-10-11T23:03:30.577Z,20.50
2018-10-11T23:06:02.393Z,15.70
2018-10-11T23:08:37.142Z,19.13
2018-10-11T23:11:07.888Z,17.57
2018-10-11T23:13:37.108Z,16.73
2018-10-11T23:16:05.660Z,18.97
2018-10-11T23:18:36.123Z,16.87
2018-10-11T23:21:05.201Z,16.17
2018-10-11T23:23:34.741Z,18.37
2018-10-11T23:26:03.322Z,16.27
2018-10-11T23:28:31.879Z,17.00
2018-10-11T23:31:00.312Z,18.17
2018-10-11T23:33:28.898Z,16.63
2018-10-11T23:35:57.322Z,18.00
2018-10-11T23:38:26.624Z,18.33
2018-10-11T23:40:55.115Z,16.17
2018-10-11T23:43:23.580Z,16.70
2018-10-11T23:45:52.029Z,15.60
2018-10-11T23:48:20.558Z,18.37
2018-10-11T23:50:49.085Z,19.83
2018-10-11T23:53:17.525Z,15.17
2018-10-11T23:55:45.958Z,19.50
2018-10-11T23:58:15.149Z,17.90
